sensor_id;sensor_type;location;lat;lon;timestamp;temperature;humidity
20712;DHT22;10517;50.742;4.224;2022-10-16T00:00:56;13.80;99.90
20712;DHT22;10517;50.742;4.224;2022-10-16T00:03:22;13.80;99.90
20712;DHT22;10517;50.742;4.224;2022-10-16T00:05:48;13.80;99.90
20712;DHT22;10517;50.742;4.224;2022-10-16T00:08:14;13.90;99.90
20712;DHT22;10517;50.742;4.224;2022-10-16T00:10:39;13.80;99.90
20712;DHT22;10517;50.742;4.224;2022-10-16T00:13:06;13.80;99.90
20712;DHT22;10517;50.742;4.224;2022-10-16T00:15:38;13.80;99.90
20712;DHT22;10517;50.742;4.224;2022-10-16T00:18:05;14.00;99.90
20712;DHT22;10517;50.742;4.224;2022-10-16T00:20:33;14.00;99.90
20712;DHT22;10517;50.742;4.224;2022-10-16T00:22:59;13.90;99.90
20712;DHT22;10517;50.742;4.224;2022-10-16T00:25:24;13.80;99.90
20712;DHT22;10517;50.742;4.224;2022-10-16T00:27:50;13.90;99.90
20712;DHT22;10517;50.742;4.224;2022-10-16T00:30:16;13.80;99.90
20712;DHT22;10517;50.742;4.224;2022-10-16T00:32:41;13.70;99.90
20712;DHT22;10517;50.742;4.224;2022-10-16T00:35:07;13.70;99.90
20712;DHT22;10517;50.742;4.224;2022-10-16T00:37:32;13.60;99.90
20712;DHT22;10517;50.742;4.224;2022-10-16T00:39:58;13.50;99.90
20712;DHT22;10517;50.742;4.224;2022-10-16T00:42:23;13.60;99.90
20712;DHT22;10517;50.742;4.224;2022-10-16T00:44:52;13.70;99.90
20712;DHT22;10517;50.742;4.224;2022-10-16T00:47:21;13.70;99.90
20712;DHT22;10517;50.742;4.224;2022-10-16T00:49:50;13.60;99.90
20712;DHT22;10517;50.742;4.224;2022-10-16T00:52:17;13.70;99.90
20712;DHT22;10517;50.742;4.224;2022-10-16T00:54:44;13.60;99.90
20712;DHT22;10517;50.742;4.224;2022-10-16T00:57:10;13.60;99.90
20712;DHT22;10517;50.742;4.224;2022-10-16T00:59:38;13.60;99.90
20712;DHT22;10517;50.742;4.224;2022-10-16T01:02:07;13.50;99.90
20712;DHT22;10517;50.742;4.224;2022-10-16T01:04:45;13.50;99.90
20712;DHT22;10517;50.742;4.224;2022-10-16T01:10:40;13.50;99.90
20712;DHT22;10517;50.742;4.224;2022-10-16T01:13:20;13.50;99.90
20712;DHT22;10517;50.742;4.224;2022-10-16T01:15:56;13.60;99.90
20712;DHT22;10517;50.742;4.224;2022-10-16T01:18:29;13.60;99.90
20712;DHT22;10517;50.742;4.224;2022-10-16T01:21:01;13.60;99.90
20712;DHT22;10517;50.742;4.224;2022-10-16T01:26:42;13.70;99.90
20712;DHT22;10517;50.742;4.224;2022-10-16T01:29:18;13.70;99.90
20712;DHT22;10517;50.742;4.224;2022-10-16T01:31:50;13.70;99.90
20712;DHT22;10517;50.742;4.224;2022-10-16T01:34:22;13.60;99.90
20712;DHT22;10517;50.742;4.224;2022-10-16T01:36:59;13.60;99.90
20712;DHT22;10517;50.742;4.224;2022-10-16T01:39:30;13.60;99.90
20712;DHT22;10517;50.742;4.224;2022-10-16T01:42:20;13.60;99.90
20712;DHT22;10517;50.742;4.224;2022-10-16T01:44:48;13.60;99.90
20712;DHT22;10517;50.742;4.224;2022-10-16T01:47:15;13.50;99.90
20712;DHT22;10517;50.742;4.224;2022-10-16T01:49:43;13.40;99.90
20712;DHT22;10517;50.742;4.224;2022-10-16T01:52:14;13.30;99.90
20712;DHT22;10517;50.742;4.224;2022-10-16T01:54:43;13.20;99.90
20712;DHT22;10517;50.742;4.224;2022-10-16T01:57:13;13.20;99.90
20712;DHT22;10517;50.742;4.224;2022-10-16T01:59:43;13.20;99.90
20712;DHT22;10517;50.742;4.224;2022-10-16T02:02:10;13.40;99.90
20712;DHT22;10517;50.742;4.224;2022-10-16T02:04:46;13.40;99.90
20712;DHT22;10517;50.742;4.224;2022-10-16T02:07:13;13.40;99.90
20712;DHT22;10517;50.742;4.224;2022-10-16T02:09:39;13.50;99.90
20712;DHT22;10517;50.742;4.224;2022-10-16T02:12:24;13.50;99.90
20712;DHT22;10517;50.742;4.224;2022-10-16T02:14:50;13.50;99.90
20712;DHT22;10517;50.742;4.224;2022-10-16T02:17:17;13.50;99.90
20712;DHT22;10517;50.742;4.224;2022-10-16T02:19:43;13.50;99.90
20712;DHT22;10517;50.742;4.224;2022-10-16T02:22:16;13.40;99.90
20712;DHT22;10517;50.742;4.224;2022-10-16T02:24:57;13.50;99.90
20712;DHT22;10517;50.742;4.224;2022-10-16T02:27:33;13.50;99.90
20712;DHT22;10517;50.742;4.224;2022-10-16T02:30:32;13.40;99.90
20712;DHT22;10517;50.742;4.224;2022-10-16T02:32:55;13.40;99.90
20712;DHT22;10517;50.742;4.224;2022-10-16T02:35:23;13.50;99.90
20712;DHT22;10517;50.742;4.224;2022-10-16T02:37:50;13.40;99.90
20712;DHT22;10517;50.742;4.224;2022-10-16T02:40:18;13.40;99.90
20712;DHT22;10517;50.742;4.224;2022-10-16T02:42:43;13.30;99.90
20712;DHT22;10517;50.742;4.224;2022-10-16T02:45:10;13.30;99.90
20712;DHT22;10517;50.742;4.224;2022-10-16T02:47:37;13.30;99.90
20712;DHT22;10517;50.742;4.224;2022-10-16T02:50:02;13.40;99.90
20712;DHT22;10517;50.742;4.224;2022-10-16T02:52:28;13.50;99.90
20712;DHT22;10517;50.742;4.224;2022-10-16T02:54:54;13.60;99.90
20712;DHT22;10517;50.742;4.224;2022-10-16T02:57:19;13.60;99.90
20712;DHT22;10517;50.742;4.224;2022-10-16T02:59:45;13.60;99.90
20712;DHT22;10517;50.742;4.224;2022-10-16T03:02:11;13.60;99.90
20712;DHT22;10517;50.742;4.224;2022-10-16T03:04:37;13.70;99.90
20712;DHT22;10517;50.742;4.224;2022-10-16T03:07:03;13.70;99.90
20712;DHT22;10517;50.742;4.224;2022-10-16T03:09:29;13.80;99.90
20712;DHT22;10517;50.742;4.224;2022-10-16T03:11:54;13.80;99.90
20712;DHT22;10517;50.742;4.224;2022-10-16T03:14:20;13.60;99.90
20712;DHT22;10517;50.742;4.224;2022-10-16T03:16:46;13.60;99.90
20712;DHT22;10517;50.742;4.224;2022-10-16T03:19:11;13.60;99.90
20712;DHT22;10517;50.742;4.224;2022-10-16T03:21:37;13.70;99.90
20712;DHT22;10517;50.742;4.224;2022-10-16T03:24:03;13.70;99.90
20712;DHT22;10517;50.742;4.224;2022-10-16T03:26:28;13.70;99.90
20712;DHT22;10517;50.742;4.224;2022-10-16T03:28:54;13.60;99.90
20712;DHT22;10517;50.742;4.224;2022-10-16T03:31:19;13.60;99.90
20712;DHT22;10517;50.742;4.224;2022-10-16T03:33:45;13.60;99.90
20712;DHT22;10517;50.742;4.224;2022-10-16T03:36:10;13.60;99.90
20712;DHT22;10517;50.742;4.224;2022-10-16T03:38:36;13.70;99.90
20712;DHT22;10517;50.742;4.224;2022-10-16T03:41:02;13.70;99.90
20712;DHT22;10517;50.742;4.224;2022-10-16T03:43:28;13.70;99.90
20712;DHT22;10517;50.742;4.224;2022-10-16T03:45:53;13.60;99.90
20712;DHT22;10517;50.742;4.224;2022-10-16T03:48:19;13.60;99.90
20712;DHT22;10517;50.742;4.224;2022-10-16T03:50:45;13.70;99.90
20712;DHT22;10517;50.742;4.224;2022-10-16T03:53:14;13.50;99.90
20712;DHT22;10517;50.742;4.224;2022-10-16T03:55:41;13.40;99.90
20712;DHT22;10517;50.742;4.224;2022-10-16T03:58:07;13.40;99.90
20712;DHT22;10517;50.742;4.224;2022-10-16T04:00:33;13.40;99.90
20712;DHT22;10517;50.742;4.224;2022-10-16T04:02:59;13.50;99.90
20712;DHT22;10517;50.742;4.224;2022-10-16T04:05:25;13.60;99.90
20712;DHT22;10517;50.742;4.224;2022-10-16T04:07:51;13.50;99.90
20712;DHT22;10517;50.742;4.224;2022-10-16T04:10:16;13.50;99.90
20712;DHT22;10517;50.742;4.224;2022-10-16T04:12:42;13.40;99.90
20712;DHT22;10517;50.742;4.224;2022-10-16T04:15:08;13.40;99.90
20712;DHT22;10517;50.742;4.224;2022-10-16T04:17:33;13.30;99.90
20712;DHT22;10517;50.742;4.224;2022-10-16T04:19:59;13.30;99.90
20712;DHT22;10517;50.742;4.224;2022-10-16T04:22:24;13.30;99.90
20712;DHT22;10517;50.742;4.224;2022-10-16T04:24:50;13.30;99.90
20712;DHT22;10517;50.742;4.224;2022-10-16T04:27:16;13.30;99.90
20712;DHT22;10517;50.742;4.224;2022-10-16T04:29:41;13.40;99.90
20712;DHT22;10517;50.742;4.224;2022-10-16T04:32:08;13.50;99.90
20712;DHT22;10517;50.742;4.224;2022-10-16T04:34:34;13.40;99.90
20712;DHT22;10517;50.742;4.224;2022-10-16T04:37:00;13.40;99.90
20712;DHT22;10517;50.742;4.224;2022-10-16T04:39:25;13.50;99.90
20712;DHT22;10517;50.742;4.224;2022-10-16T04:41:51;13.40;99.90
20712;DHT22;10517;50.742;4.224;2022-10-16T04:44:17;13.30;99.90
20712;DHT22;10517;50.742;4.224;2022-10-16T04:46:42;13.20;99.90
20712;DHT22;10517;50.742;4.224;2022-10-16T04:49:09;13.20;99.90
20712;DHT22;10517;50.742;4.224;2022-10-16T04:51:35;13.20;99.90
20712;DHT22;10517;50.742;4.224;2022-10-16T04:54:01;13.30;99.90
20712;DHT22;10517;50.742;4.224;2022-10-16T04:56:26;13.30;99.90
20712;DHT22;10517;50.742;4.224;2022-10-16T04:58:52;13.20;99.90
20712;DHT22;10517;50.742;4.224;2022-10-16T05:01:17;13.20;99.90
20712;DHT22;10517;50.742;4.224;2022-10-16T05:03:43;13.20;99.90
20712;DHT22;10517;50.742;4.224;2022-10-16T05:06:09;13.20;99.90
20712;DHT22;10517;50.742;4.224;2022-10-16T05:08:34;13.10;99.90
20712;DHT22;10517;50.742;4.224;2022-10-16T05:11:00;13.10;99.90
20712;DHT22;10517;50.742;4.224;2022-10-16T05:13:26;13.20;99.90
20712;DHT22;10517;50.742;4.224;2022-10-16T05:15:52;13.10;99.90
20712;DHT22;10517;50.742;4.224;2022-10-16T05:18:17;13.00;99.90
20712;DHT22;10517;50.742;4.224;2022-10-16T05:20:43;13.10;99.90
20712;DHT22;10517;50.742;4.224;2022-10-16T05:23:09;13.10;99.90
20712;DHT22;10517;50.742;4.224;2022-10-16T05:25:38;13.10;99.90
20712;DHT22;10517;50.742;4.224;2022-10-16T05:28:03;13.10;99.90
20712;DHT22;10517;50.742;4.224;2022-10-16T05:30:29;13.00;99.90
20712;DHT22;10517;50.742;4.224;2022-10-16T05:32:55;13.00;99.90
20712;DHT22;10517;50.742;4.224;2022-10-16T05:35:21;12.90;99.90
20712;DHT22;10517;50.742;4.224;2022-10-16T05:37:47;13.00;99.90
20712;DHT22;10517;50.742;4.224;2022-10-16T05:40:13;13.00;99.90
20712;DHT22;10517;50.742;4.224;2022-10-16T05:42:39;13.00;99.90
20712;DHT22;10517;50.742;4.224;2022-10-16T05:45:06;12.90;99.90
20712;DHT22;10517;50.742;4.224;2022-10-16T05:47:32;12.90;99.90
20712;DHT22;10517;50.742;4.224;2022-10-16T05:49:57;12.90;99.90
20712;DHT22;10517;50.742;4.224;2022-10-16T05:52:23;12.90;99.90
20712;DHT22;10517;50.742;4.224;2022-10-16T05:54:49;12.90;99.90
20712;DHT22;10517;50.742;4.224;2022-10-16T05:57:15;12.90;99.90
20712;DHT22;10517;50.742;4.224;2022-10-16T05:59:40;12.90;99.90
20712;DHT22;10517;50.742;4.224;2022-10-16T06:02:07;12.90;99.90
20712;DHT22;10517;50.742;4.224;2022-10-16T06:04:33;12.80;99.90
20712;DHT22;10517;50.742;4.224;2022-10-16T06:06:59;12.90;99.90
20712;DHT22;10517;50.742;4.224;2022-10-16T06:09:26;12.80;99.90
20712;DHT22;10517;50.742;4.224;2022-10-16T06:11:51;12.70;99.90
20712;DHT22;10517;50.742;4.224;2022-10-16T06:14:17;12.70;99.90
20712;DHT22;10517;50.742;4.224;2022-10-16T06:16:42;12.70;99.90
20712;DHT22;10517;50.742;4.224;2022-10-16T06:19:08;12.70;99.90
20712;DHT22;10517;50.742;4.224;2022-10-16T06:21:34;12.70;99.90
20712;DHT22;10517;50.742;4.224;2022-10-16T06:24:00;12.70;99.90
20712;DHT22;10517;50.742;4.224;2022-10-16T06:26:28;12.70;99.90
20712;DHT22;10517;50.742;4.224;2022-10-16T06:28:55;12.80;99.90
20712;DHT22;10517;50.742;4.224;2022-10-16T06:31:21;12.90;99.90
20712;DHT22;10517;50.742;4.224;2022-10-16T06:33:50;13.00;99.90
20712;DHT22;10517;50.742;4.224;2022-10-16T06:36:17;13.00;99.90
20712;DHT22;10517;50.742;4.224;2022-10-16T06:38:43;13.10;99.90
20712;DHT22;10517;50.742;4.224;2022-10-16T06:41:12;13.20;99.90
20712;DHT22;10517;50.742;4.224;2022-10-16T06:43:38;13.40;99.90
20712;DHT22;10517;50.742;4.224;2022-10-16T06:46:05;13.50;99.90
20712;DHT22;10517;50.742;4.224;2022-10-16T06:48:32;13.50;99.90
20712;DHT22;10517;50.742;4.224;2022-10-16T06:51:01;13.50;99.90
20712;DHT22;10517;50.742;4.224;2022-10-16T06:53:29;13.60;99.90
20712;DHT22;10517;50.742;4.224;2022-10-16T06:55:55;13.60;99.90
20712;DHT22;10517;50.742;4.224;2022-10-16T06:58:22;13.70;99.90
20712;DHT22;10517;50.742;4.224;2022-10-16T07:00:48;14.00;99.90
20712;DHT22;10517;50.742;4.224;2022-10-16T07:03:14;14.00;99.90
20712;DHT22;10517;50.742;4.224;2022-10-16T07:05:41;13.90;99.90
20712;DHT22;10517;50.742;4.224;2022-10-16T07:08:06;13.80;99.90
20712;DHT22;10517;50.742;4.224;2022-10-16T07:10:33;13.80;99.90
20712;DHT22;10517;50.742;4.224;2022-10-16T07:12:58;13.80;99.90
20712;DHT22;10517;50.742;4.224;2022-10-16T07:15:25;13.70;99.90
20712;DHT22;10517;50.742;4.224;2022-10-16T07:17:51;13.70;99.90
20712;DHT22;10517;50.742;4.224;2022-10-16T07:20:17;13.70;99.90
20712;DHT22;10517;50.742;4.224;2022-10-16T07:22:42;13.60;99.90
20712;DHT22;10517;50.742;4.224;2022-10-16T07:25:08;13.70;99.90
20712;DHT22;10517;50.742;4.224;2022-10-16T07:27:34;13.70;99.90
20712;DHT22;10517;50.742;4.224;2022-10-16T07:30:00;13.80;99.90
20712;DHT22;10517;50.742;4.224;2022-10-16T07:32:25;13.80;99.90
20712;DHT22;10517;50.742;4.224;2022-10-16T07:34:52;14.00;99.90
20712;DHT22;10517;50.742;4.224;2022-10-16T07:37:17;14.10;99.90
20712;DHT22;10517;50.742;4.224;2022-10-16T07:39:43;14.10;99.90
20712;DHT22;10517;50.742;4.224;2022-10-16T07:42:08;14.20;99.90
20712;DHT22;10517;50.742;4.224;2022-10-16T07:44:34;14.30;99.90
20712;DHT22;10517;50.742;4.224;2022-10-16T07:47:00;14.30;99.90
20712;DHT22;10517;50.742;4.224;2022-10-16T07:49:25;14.30;99.90
20712;DHT22;10517;50.742;4.224;2022-10-16T07:51:51;14.40;99.90
20712;DHT22;10517;50.742;4.224;2022-10-16T07:54:16;14.50;99.90
20712;DHT22;10517;50.742;4.224;2022-10-16T07:56:42;14.50;99.90
20712;DHT22;10517;50.742;4.224;2022-10-16T07:59:07;14.50;99.90
20712;DHT22;10517;50.742;4.224;2022-10-16T08:01:33;14.50;99.90
20712;DHT22;10517;50.742;4.224;2022-10-16T08:03:59;14.60;99.90
20712;DHT22;10517;50.742;4.224;2022-10-16T08:06:24;14.60;99.90
20712;DHT22;10517;50.742;4.224;2022-10-16T08:08:50;14.70;99.90
20712;DHT22;10517;50.742;4.224;2022-10-16T08:11:16;14.80;99.90
20712;DHT22;10517;50.742;4.224;2022-10-16T08:13:42;14.90;99.90
20712;DHT22;10517;50.742;4.224;2022-10-16T08:16:08;14.90;99.90
20712;DHT22;10517;50.742;4.224;2022-10-16T08:18:35;15.00;99.90
20712;DHT22;10517;50.742;4.224;2022-10-16T08:21:01;15.10;99.90
20712;DHT22;10517;50.742;4.224;2022-10-16T08:23:28;15.10;99.90
20712;DHT22;10517;50.742;4.224;2022-10-16T08:25:54;15.20;99.90
20712;DHT22;10517;50.742;4.224;2022-10-16T08:28:20;15.30;99.90
20712;DHT22;10517;50.742;4.224;2022-10-16T08:30:45;15.30;99.90
20712;DHT22;10517;50.742;4.224;2022-10-16T08:33:11;15.40;99.90
20712;DHT22;10517;50.742;4.224;2022-10-16T08:35:36;15.50;99.90
20712;DHT22;10517;50.742;4.224;2022-10-16T08:38:06;15.50;99.90
20712;DHT22;10517;50.742;4.224;2022-10-16T08:40:33;15.60;99.90
20712;DHT22;10517;50.742;4.224;2022-10-16T08:48:51;15.70;99.90
20712;DHT22;10517;50.742;4.224;2022-10-16T08:51:24;15.80;99.90
20712;DHT22;10517;50.742;4.224;2022-10-16T08:56:27;16.10;99.90
20712;DHT22;10517;50.742;4.224;2022-10-16T08:58:54;16.20;99.90
20712;DHT22;10517;50.742;4.224;2022-10-16T09:01:22;16.20;99.90
20712;DHT22;10517;50.742;4.224;2022-10-16T09:06:52;16.30;99.90
20712;DHT22;10517;50.742;4.224;2022-10-16T09:12:33;16.50;99.90
20712;DHT22;10517;50.742;4.224;2022-10-16T09:15:27;16.70;99.90
20712;DHT22;10517;50.742;4.224;2022-10-16T09:18:12;16.80;99.90
20712;DHT22;10517;50.742;4.224;2022-10-16T09:21:41;17.00;99.90
20712;DHT22;10517;50.742;4.224;2022-10-16T09:23:36;16.90;99.90
20712;DHT22;10517;50.742;4.224;2022-10-16T09:26:03;16.90;99.90
20712;DHT22;10517;50.742;4.224;2022-10-16T09:28:29;17.00;99.90
20712;DHT22;10517;50.742;4.224;2022-10-16T09:30:55;17.20;99.90
20712;DHT22;10517;50.742;4.224;2022-10-16T09:33:24;17.30;99.90
20712;DHT22;10517;50.742;4.224;2022-10-16T09:35:56;17.30;99.90
20712;DHT22;10517;50.742;4.224;2022-10-16T09:40:55;17.30;99.90
20712;DHT22;10517;50.742;4.224;2022-10-16T09:43:34;17.30;99.90
20712;DHT22;10517;50.742;4.224;2022-10-16T09:48:37;17.50;99.90
20712;DHT22;10517;50.742;4.224;2022-10-16T09:51:06;17.60;99.90
20712;DHT22;10517;50.742;4.224;2022-10-16T09:53:43;17.60;99.90
20712;DHT22;10517;50.742;4.224;2022-10-16T09:56:11;17.70;99.90
20712;DHT22;10517;50.742;4.224;2022-10-16T09:58:42;17.90;99.90
20712;DHT22;10517;50.742;4.224;2022-10-16T10:01:14;18.10;99.90
20712;DHT22;10517;50.742;4.224;2022-10-16T10:03:41;18.30;99.90
20712;DHT22;10517;50.742;4.224;2022-10-16T10:06:28;18.40;99.90
20712;DHT22;10517;50.742;4.224;2022-10-16T10:11:42;18.40;99.90
20712;DHT22;10517;50.742;4.224;2022-10-16T10:16:47;18.80;99.90
20712;DHT22;10517;50.742;4.224;2022-10-16T10:19:15;18.80;99.90
20712;DHT22;10517;50.742;4.224;2022-10-16T10:21:40;18.80;99.90
20712;DHT22;10517;50.742;4.224;2022-10-16T10:24:11;18.80;99.90
20712;DHT22;10517;50.742;4.224;2022-10-16T10:26:38;18.90;99.90
20712;DHT22;10517;50.742;4.224;2022-10-16T10:29:27;19.00;99.90
20712;DHT22;10517;50.742;4.224;2022-10-16T10:35:08;19.40;99.90
20712;DHT22;10517;50.742;4.224;2022-10-16T10:46:03;20.00;99.90
20712;DHT22;10517;50.742;4.224;2022-10-16T10:48:45;20.00;99.90
20712;DHT22;10517;50.742;4.224;2022-10-16T10:51:41;20.10;99.90
20712;DHT22;10517;50.742;4.224;2022-10-16T10:56:58;20.10;99.90
20712;DHT22;10517;50.742;4.224;2022-10-16T11:02:21;19.90;99.90
20712;DHT22;10517;50.742;4.224;2022-10-16T11:07:48;19.70;99.90
20712;DHT22;10517;50.742;4.224;2022-10-16T11:10:16;19.90;99.90
20712;DHT22;10517;50.742;4.224;2022-10-16T11:12:51;20.10;99.90
20712;DHT22;10517;50.742;4.224;2022-10-16T11:15:35;20.10;99.90
20712;DHT22;10517;50.742;4.224;2022-10-16T11:18:12;20.30;99.90
20712;DHT22;10517;50.742;4.224;2022-10-16T11:20:49;20.40;99.90
20712;DHT22;10517;50.742;4.224;2022-10-16T11:26:08;20.20;99.90
20712;DHT22;10517;50.742;4.224;2022-10-16T11:28:42;20.20;99.90
20712;DHT22;10517;50.742;4.224;2022-10-16T11:31:24;20.10;99.90
20712;DHT22;10517;50.742;4.224;2022-10-16T11:34:08;20.30;99.90
20712;DHT22;10517;50.742;4.224;2022-10-16T11:39:26;20.40;99.90
20712;DHT22;10517;50.742;4.224;2022-10-16T11:42:03;20.30;99.90
20712;DHT22;10517;50.742;4.224;2022-10-16T11:44:57;20.20;99.90
20712;DHT22;10517;50.742;4.224;2022-10-16T11:50:20;20.30;99.90
20712;DHT22;10517;50.742;4.224;2022-10-16T11:55:45;20.70;99.90
20712;DHT22;10517;50.742;4.224;2022-10-16T12:01:13;21.00;99.90
20712;DHT22;10517;50.742;4.224;2022-10-16T12:06:47;21.40;99.90
20712;DHT22;10517;50.742;4.224;2022-10-16T12:09:28;21.60;99.90
20712;DHT22;10517;50.742;4.224;2022-10-16T12:11:55;21.80;99.90
20712;DHT22;10517;50.742;4.224;2022-10-16T12:17:01;22.00;99.90
20712;DHT22;10517;50.742;4.224;2022-10-16T12:19:30;22.20;99.90
20712;DHT22;10517;50.742;4.224;2022-10-16T12:21:59;22.30;99.90
20712;DHT22;10517;50.742;4.224;2022-10-16T12:24:37;22.30;99.90
20712;DHT22;10517;50.742;4.224;2022-10-16T12:27:06;22.50;99.90
20712;DHT22;10517;50.742;4.224;2022-10-16T12:29:35;22.80;99.90
20712;DHT22;10517;50.742;4.224;2022-10-16T12:32:03;22.90;99.90
20712;DHT22;10517;50.742;4.224;2022-10-16T12:34:37;22.90;99.90
20712;DHT22;10517;50.742;4.224;2022-10-16T12:37:28;22.90;99.90
20712;DHT22;10517;50.742;4.224;2022-10-16T12:39:55;22.80;99.90
20712;DHT22;10517;50.742;4.224;2022-10-16T12:44:54;22.60;99.90
20712;DHT22;10517;50.742;4.224;2022-10-16T12:49:54;22.30;99.90
20712;DHT22;10517;50.742;4.224;2022-10-16T12:52:34;22.50;99.90
20712;DHT22;10517;50.742;4.224;2022-10-16T12:55:00;22.50;99.90
20712;DHT22;10517;50.742;4.224;2022-10-16T13:00:41;22.40;99.90
20712;DHT22;10517;50.742;4.224;2022-10-16T13:12:21;22.40;99.90
20712;DHT22;10517;50.742;4.224;2022-10-16T13:15:16;22.50;99.90
20712;DHT22;10517;50.742;4.224;2022-10-16T13:18:10;22.60;99.90
20712;DHT22;10517;50.742;4.224;2022-10-16T13:23:30;22.60;99.90
20712;DHT22;10517;50.742;4.224;2022-10-16T13:26:05;22.50;99.90
20712;DHT22;10517;50.742;4.224;2022-10-16T13:28:35;22.60;99.90
20712;DHT22;10517;50.742;4.224;2022-10-16T13:31:03;22.70;99.90
20712;DHT22;10517;50.742;4.224;2022-10-16T13:33:36;23.00;99.90
20712;DHT22;10517;50.742;4.224;2022-10-16T13:36:03;23.10;99.90
20712;DHT22;10517;50.742;4.224;2022-10-16T13:38:32;22.60;99.90
20712;DHT22;10517;50.742;4.224;2022-10-16T13:41:03;22.30;99.90
20712;DHT22;10517;50.742;4.224;2022-10-16T13:43:37;22.00;99.90
20712;DHT22;10517;50.742;4.224;2022-10-16T13:46:06;21.80;99.90
20712;DHT22;10517;50.742;4.224;2022-10-16T13:48:33;21.70;99.90
20712;DHT22;10517;50.742;4.224;2022-10-16T13:51:16;21.70;99.90
20712;DHT22;10517;50.742;4.224;2022-10-16T13:53:42;21.70;99.90
20712;DHT22;10517;50.742;4.224;2022-10-16T13:56:14;21.90;99.90
20712;DHT22;10517;50.742;4.224;2022-10-16T13:58:40;21.90;99.90
20712;DHT22;10517;50.742;4.224;2022-10-16T14:01:19;21.80;99.90
20712;DHT22;10517;50.742;4.224;2022-10-16T14:03:46;21.60;99.90
20712;DHT22;10517;50.742;4.224;2022-10-16T14:06:15;21.40;99.90
20712;DHT22;10517;50.742;4.224;2022-10-16T14:08:44;21.20;99.90
20712;DHT22;10517;50.742;4.224;2022-10-16T14:11:11;21.00;99.90
20712;DHT22;10517;50.742;4.224;2022-10-16T14:13:40;21.00;99.90
20712;DHT22;10517;50.742;4.224;2022-10-16T14:16:10;20.90;99.90
20712;DHT22;10517;50.742;4.224;2022-10-16T14:18:38;20.90;99.90
20712;DHT22;10517;50.742;4.224;2022-10-16T14:21:06;21.00;99.90
20712;DHT22;10517;50.742;4.224;2022-10-16T14:23:36;21.20;99.90
20712;DHT22;10517;50.742;4.224;2022-10-16T14:28:35;21.40;99.90
20712;DHT22;10517;50.742;4.224;2022-10-16T14:31:02;21.50;99.90
20712;DHT22;10517;50.742;4.224;2022-10-16T14:33:40;21.60;99.90
20712;DHT22;10517;50.742;4.224;2022-10-16T14:36:12;21.60;99.90
20712;DHT22;10517;50.742;4.224;2022-10-16T14:38:40;21.70;99.90
20712;DHT22;10517;50.742;4.224;2022-10-16T14:41:06;21.80;99.90
20712;DHT22;10517;50.742;4.224;2022-10-16T14:43:42;22.00;99.90
20712;DHT22;10517;50.742;4.224;2022-10-16T14:46:19;22.00;99.90
20712;DHT22;10517;50.742;4.224;2022-10-16T14:48:48;21.90;99.90
20712;DHT22;10517;50.742;4.224;2022-10-16T14:51:16;21.90;99.90
20712;DHT22;10517;50.742;4.224;2022-10-16T14:53:42;21.80;99.90
20712;DHT22;10517;50.742;4.224;2022-10-16T14:56:14;21.70;99.90
20712;DHT22;10517;50.742;4.224;2022-10-16T14:58:41;21.50;99.90
20712;DHT22;10517;50.742;4.224;2022-10-16T15:01:09;21.40;99.90
20712;DHT22;10517;50.742;4.224;2022-10-16T15:03:36;21.30;99.90
20712;DHT22;10517;50.742;4.224;2022-10-16T15:06:01;21.30;99.90
20712;DHT22;10517;50.742;4.224;2022-10-16T15:08:27;21.30;99.90
20712;DHT22;10517;50.742;4.224;2022-10-16T15:10:52;21.30;99.90
20712;DHT22;10517;50.742;4.224;2022-10-16T15:13:18;21.10;99.90
20712;DHT22;10517;50.742;4.224;2022-10-16T15:15:46;21.10;99.90
20712;DHT22;10517;50.742;4.224;2022-10-16T15:18:12;21.00;99.90
20712;DHT22;10517;50.742;4.224;2022-10-16T15:20:40;20.90;99.90
20712;DHT22;10517;50.742;4.224;2022-10-16T15:23:18;20.90;99.90
20712;DHT22;10517;50.742;4.224;2022-10-16T15:25:50;20.70;99.90
20712;DHT22;10517;50.742;4.224;2022-10-16T15:28:17;20.60;99.90
20712;DHT22;10517;50.742;4.224;2022-10-16T15:30:44;20.40;99.90
20712;DHT22;10517;50.742;4.224;2022-10-16T15:33:15;20.20;99.90
20712;DHT22;10517;50.742;4.224;2022-10-16T15:35:41;20.20;99.90
20712;DHT22;10517;50.742;4.224;2022-10-16T15:38:11;20.10;99.90
20712;DHT22;10517;50.742;4.224;2022-10-16T15:40:37;19.90;99.90
20712;DHT22;10517;50.742;4.224;2022-10-16T15:43:03;19.80;99.90
20712;DHT22;10517;50.742;4.224;2022-10-16T15:45:29;19.70;99.90
20712;DHT22;10517;50.742;4.224;2022-10-16T15:47:54;19.70;99.90
20712;DHT22;10517;50.742;4.224;2022-10-16T15:50:20;19.70;99.90
20712;DHT22;10517;50.742;4.224;2022-10-16T15:52:45;19.70;99.90
20712;DHT22;10517;50.742;4.224;2022-10-16T15:55:13;19.60;99.90
20712;DHT22;10517;50.742;4.224;2022-10-16T15:57:39;19.50;99.90
20712;DHT22;10517;50.742;4.224;2022-10-16T16:00:10;19.40;99.90
20712;DHT22;10517;50.742;4.224;2022-10-16T16:02:36;19.30;99.90
20712;DHT22;10517;50.742;4.224;2022-10-16T16:05:02;19.30;99.90
20712;DHT22;10517;50.742;4.224;2022-10-16T16:07:32;19.20;99.90
20712;DHT22;10517;50.742;4.224;2022-10-16T16:09:58;19.20;99.90
20712;DHT22;10517;50.742;4.224;2022-10-16T16:12:24;19.10;99.90
20712;DHT22;10517;50.742;4.224;2022-10-16T16:14:49;19.10;99.90
20712;DHT22;10517;50.742;4.224;2022-10-16T16:17:15;19.00;99.90
20712;DHT22;10517;50.742;4.224;2022-10-16T16:19:40;19.10;99.90
20712;DHT22;10517;50.742;4.224;2022-10-16T16:22:06;19.00;99.90
20712;DHT22;10517;50.742;4.224;2022-10-16T16:24:31;19.00;99.90
20712;DHT22;10517;50.742;4.224;2022-10-16T16:26:57;18.90;99.90
20712;DHT22;10517;50.742;4.224;2022-10-16T16:29:23;18.90;99.90
20712;DHT22;10517;50.742;4.224;2022-10-16T16:31:48;18.90;99.90
20712;DHT22;10517;50.742;4.224;2022-10-16T16:34:14;18.90;99.90
20712;DHT22;10517;50.742;4.224;2022-10-16T16:36:40;18.80;99.90
20712;DHT22;10517;50.742;4.224;2022-10-16T16:39:07;18.70;99.90
20712;DHT22;10517;50.742;4.224;2022-10-16T16:41:33;18.60;99.90
20712;DHT22;10517;50.742;4.224;2022-10-16T16:44:04;18.50;99.90
20712;DHT22;10517;50.742;4.224;2022-10-16T16:46:31;18.50;99.90
20712;DHT22;10517;50.742;4.224;2022-10-16T16:48:58;18.50;99.90
20712;DHT22;10517;50.742;4.224;2022-10-16T16:51:23;18.40;99.90
20712;DHT22;10517;50.742;4.224;2022-10-16T16:53:51;18.50;99.90
20712;DHT22;10517;50.742;4.224;2022-10-16T16:56:18;18.40;99.90
20712;DHT22;10517;50.742;4.224;2022-10-16T16:58:48;18.40;99.90
20712;DHT22;10517;50.742;4.224;2022-10-16T17:01:14;18.30;99.90
20712;DHT22;10517;50.742;4.224;2022-10-16T17:03:42;18.20;99.90
20712;DHT22;10517;50.742;4.224;2022-10-16T17:06:12;18.10;99.90
20712;DHT22;10517;50.742;4.224;2022-10-16T17:08:38;18.00;99.90
20712;DHT22;10517;50.742;4.224;2022-10-16T17:11:05;17.80;99.90
20712;DHT22;10517;50.742;4.224;2022-10-16T17:13:33;17.70;99.90